createdAt,value
2018-11-21T00:02:19.555Z,10.63
2018-11-21T00:04:47.657Z,11.07
2018-11-21T00:07:15.811Z,10.60
2018-11-21T00:09:43.985Z,11.33
2018-11-21T00:12:12.552Z,12.13
2018-11-21T00:14:40.671Z,11.57
2018-11-21T00:17:08.787Z,11.23
2018-11-21T00:19:36.922Z,11.63
2018-11-21T00:22:05.270Z,11.30
2018-11-21T00:24:33.338Z,10.87
2018-11-21T00:27:01.741Z,12.13
2018-11-21T00:29:29.851Z,11.50
2018-11-21T00:31:58.074Z,12.17
2018-11-21T00:34:26.237Z,11.93
2018-11-21T00:36:54.382Z,11.83
2018-11-21T00:39:22.501Z,11.40
2018-11-21T00:41:51.000Z,11.60
2018-11-21T00:44:20.289Z,12.17
2018-11-21T00:46:48.374Z,12.13
2018-11-21T00:49:16.533Z,11.60
2018-11-21T00:51:44.769Z,11.00
2018-11-21T00:54:13.000Z,12.00
2018-11-21T00:56:41.155Z,11.43
2018-11-21T00:59:09.255Z,12.50
2018-11-21T01:01:37.454Z,11.40
2018-11-21T01:04:05.575Z,14.20
2018-11-21T01:06:33.788Z,11.83
2018-11-21T01:09:01.936Z,13.30
2018-11-21T01:11:30.045Z,12.00
2018-11-21T01:13:58.191Z,11.60
2018-11-21T01:16:26.932Z,12.00
2018-11-21T01:18:55.186Z,11.87
2018-11-21T01:21:23.659Z,11.63
2018-11-21T01:23:51.781Z,12.07
2018-11-21T01:26:20.409Z,11.97
2018-11-21T01:28:48.648Z,12.03
2018-11-21T01:31:16.875Z,13.10
2018-11-21T01:33:44.999Z,12.10
2018-11-21T01:36:13.122Z,12.27
2018-11-21T01:38:41.375Z,11.90
2018-11-21T01:41:09.555Z,13.33
2018-11-21T01:43:37.700Z,12.77
2018-11-21T01:46:06.465Z,12.87
2018-11-21T01:48:34.814Z,12.37
2018-11-21T01:51:02.973Z,11.90
2018-11-21T01:53:31.077Z,12.83
2018-11-21T01:55:59.184Z,11.93
2018-11-21T01:58:27.704Z,12.43
2018-11-21T02:00:55.796Z,11.43
2018-11-21T02:03:23.948Z,13.30
2018-11-21T02:05:52.075Z,14.43
2018-11-21T02:08:20.179Z,13.83
2018-11-21T02:10:48.485Z,12.20
2018-11-21T02:13:16.612Z,13.27
2018-11-21T02:15:44.760Z,12.37
2018-11-21T02:18:12.873Z,13.60
2018-11-21T02:20:41.022Z,13.23
2018-11-21T02:23:18.740Z,13.23
2018-11-21T02:25:40.876Z,13.37
2018-11-21T02:28:10.664Z,13.33
2018-11-21T02:30:39.137Z,12.93
2018-11-21T02:33:07.240Z,14.33
2018-11-21T02:35:35.357Z,13.77
2018-11-21T02:38:03.657Z,13.50
2018-11-21T02:40:31.790Z,13.70
2018-11-21T02:42:59.989Z,12.77
2018-11-21T02:45:28.139Z,13.77
2018-11-21T02:47:56.282Z,13.67
2018-11-21T02:50:24.507Z,14.10
2018-11-21T02:52:52.680Z,14.47
2018-11-21T02:55:20.800Z,14.33
2018-11-21T02:57:48.927Z,13.80
2018-11-21T03:00:19.394Z,13.87
2018-11-21T03:02:47.561Z,13.47
2018-11-21T03:05:16.046Z,13.83
2018-11-21T03:08:00.047Z,14.77
2018-11-21T03:10:28.406Z,13.00
2018-11-21T03:12:56.817Z,14.33
2018-11-21T03:15:24.953Z,14.13
2018-11-21T03:17:53.049Z,13.27
2018-11-21T03:20:21.406Z,14.27
2018-11-21T03:22:49.604Z,14.97
2018-11-21T03:25:18.073Z,15.23
2018-11-21T03:27:46.287Z,15.83
2018-11-21T03:30:14.459Z,15.07
2018-11-21T03:32:42.767Z,15.53
2018-11-21T03:35:11.318Z,14.37
2018-11-21T03:37:39.471Z,13.80
2018-11-21T03:40:09.545Z,13.63
2018-11-21T03:42:37.906Z,15.90
2018-11-21T03:45:08.085Z,14.73
2018-11-21T03:47:36.224Z,14.60
2018-11-21T03:50:05.818Z,14.07
2018-11-21T03:52:34.302Z,14.00
2018-11-21T03:55:02.416Z,13.87
2018-11-21T03:57:30.664Z,16.07
2018-11-21T03:59:58.797Z,15.27
2018-11-21T04:02:27.024Z,13.97
2018-11-21T04:04:55.161Z,15.43
2018-11-21T04:07:23.617Z,14.93
2018-11-21T04:09:51.804Z,14.77
2018-11-21T04:12:19.931Z,14.43
2018-11-21T04:14:48.290Z,14.10
2018-11-21T04:17:16.747Z,14.50
2018-11-21T04:19:44.921Z,14.50
2018-11-21T04:22:13.059Z,13.80
2018-11-21T04:24:41.260Z,15.03
2018-11-21T04:27:09.455Z,15.17
2018-11-21T04:29:37.946Z,14.17
2018-11-21T04:32:06.069Z,14.33
2018-11-21T04:34:34.255Z,14.23
2018-11-21T04:37:02.704Z,14.47
2018-11-21T04:39:30.838Z,14.73
2018-11-21T04:41:59.091Z,13.87
2018-11-21T04:44:27.187Z,13.23
2018-11-21T04:46:55.307Z,14.03
2018-11-21T04:49:23.423Z,13.80
2018-11-21T04:51:51.996Z,14.53
2018-11-21T04:54:20.220Z,13.30
2018-11-21T04:56:48.440Z,14.03
2018-11-21T04:59:16.588Z,14.37
2018-11-21T05:01:45.024Z,15.07
2018-11-21T05:04:13.164Z,15.50
2018-11-21T05:06:41.332Z,14.27
2018-11-21T05:09:13.179Z,14.73
2018-11-21T05:11:41.652Z,14.70
2018-11-21T05:14:09.861Z,17.20
2018-11-21T05:16:38.092Z,15.23
2018-11-21T05:19:06.264Z,14.87
2018-11-21T05:21:34.530Z,14.57
2018-11-21T05:24:02.653Z,14.03
2018-11-21T05:26:30.839Z,16.20
2018-11-21T05:28:59.074Z,14.33
2018-11-21T05:31:27.289Z,14.47
2018-11-21T05:33:55.410Z,14.63
2018-11-21T05:36:23.567Z,14.27
2018-11-21T05:38:51.696Z,16.57
2018-11-21T05:41:20.489Z,15.00
2018-11-21T05:43:48.978Z,15.70
2018-11-21T05:46:17.384Z,16.37
2018-11-21T05:48:45.849Z,15.47
2018-11-21T05:51:13.958Z,15.13
2018-11-21T05:53:42.128Z,15.97
2018-11-21T05:56:10.562Z,16.13
2018-11-21T05:58:39.014Z,15.30
2018-11-21T06:01:07.459Z,15.40
2018-11-21T06:03:35.569Z,15.17
2018-11-21T06:06:09.748Z,15.63
2018-11-21T06:08:31.873Z,17.50
2018-11-21T06:11:00.057Z,15.27
2018-11-21T06:13:28.115Z,14.50
2018-11-21T06:15:56.266Z,15.30
2018-11-21T06:18:24.394Z,16.40
2018-11-21T06:20:52.611Z,16.13
2018-11-21T06:23:21.442Z,15.47
2018-11-21T06:25:49.592Z,16.20
2018-11-21T06:28:17.757Z,14.37
2018-11-21T06:30:46.364Z,15.57
2018-11-21T06:33:14.597Z,14.70
2018-11-21T06:35:42.831Z,14.70
2018-11-21T06:38:10.935Z,16.20
2018-11-21T06:40:39.341Z,15.20
2018-11-21T06:43:07.558Z,15.73
2018-11-21T06:45:35.764Z,15.50
2018-11-21T06:48:03.962Z,15.20
2018-11-21T06:50:32.111Z,15.07
2018-11-21T06:53:01.031Z,14.53
2018-11-21T06:55:29.265Z,14.73
2018-11-21T06:58:02.351Z,14.07
2018-11-21T07:00:29.501Z,14.27
2018-11-21T07:02:57.803Z,14.53
2018-11-21T07:05:25.997Z,13.73
2018-11-21T07:07:54.104Z,15.03
2018-11-21T07:10:22.505Z,14.30
2018-11-21T07:12:50.945Z,14.10
2018-11-21T07:15:20.915Z,13.93
2018-11-21T07:17:49.295Z,15.17
2018-11-21T07:20:17.888Z,14.27
2018-11-21T07:22:46.024Z,15.23
2018-11-21T07:25:21.598Z,14.20
2018-11-21T07:27:49.922Z,14.97
2018-11-21T07:30:18.482Z,13.70
2018-11-21T07:32:46.772Z,14.03
2018-11-21T07:35:18.019Z,15.50
2018-11-21T07:38:30.859Z,14.00
2018-11-21T07:41:05.066Z,14.60
2018-11-21T07:43:33.586Z,15.17
2018-11-21T07:46:01.690Z,14.67
2018-11-21T07:48:44.638Z,14.33
2018-11-21T07:51:06.169Z,16.37
2018-11-21T07:53:45.512Z,13.90
2018-11-21T07:57:02.522Z,13.53
2018-11-21T07:59:31.310Z,13.80
2018-11-21T08:02:17.577Z,13.80
2018-11-21T08:04:50.039Z,15.00
2018-11-21T08:07:43.222Z,14.60
2018-11-21T08:10:28.958Z,13.90
2018-11-21T08:13:16.519Z,14.00
2018-11-21T08:19:11.429Z,13.57
2018-11-21T08:21:57.246Z,13.63
2018-11-21T08:24:43.392Z,14.83
2018-11-21T08:27:39.878Z,12.90
2018-11-21T08:30:08.015Z,14.10
2018-11-21T08:32:36.248Z,14.10
2018-11-21T08:35:04.716Z,15.17
2018-11-21T08:37:32.857Z,14.57
2018-11-21T08:40:01.242Z,13.00
2018-11-21T08:42:29.366Z,13.53
2018-11-21T08:44:57.915Z,13.87
2018-11-21T08:47:26.064Z,13.90
2018-11-21T08:49:54.150Z,13.97
2018-11-21T08:52:22.397Z,14.63
2018-11-21T08:54:50.942Z,13.97
2018-11-21T08:57:19.353Z,13.57
2018-11-21T08:59:47.479Z,14.03
2018-11-21T09:02:15.668Z,14.03
2018-11-21T09:04:43.835Z,13.97
2018-11-21T09:07:11.973Z,13.87
2018-11-21T09:09:40.104Z,13.50
2018-11-21T09:12:08.885Z,13.30
2018-11-21T09:14:36.670Z,13.87
2018-11-21T09:17:04.861Z,13.87
2018-11-21T09:19:32.987Z,13.13
2018-11-21T09:22:01.262Z,15.10
2018-11-21T09:24:29.746Z,13.07
2018-11-21T09:26:57.800Z,14.37
2018-11-21T09:29:26.375Z,13.90
2018-11-21T09:31:54.502Z,14.30
2018-11-21T09:34:22.785Z,13.50
2018-11-21T09:36:51.018Z,13.53
2018-11-21T09:39:19.158Z,14.00
2018-11-21T09:41:47.295Z,13.43
2018-11-21T09:44:15.497Z,13.70
2018-11-21T09:46:43.699Z,13.10
2018-11-21T09:49:11.805Z,13.77
2018-11-21T09:51:39.995Z,12.80
2018-11-21T09:54:08.121Z,13.43
2018-11-21T09:56:36.248Z,13.20
2018-11-21T09:59:04.791Z,12.67
2018-11-21T10:02:09.144Z,13.97
2018-11-21T10:04:37.238Z,14.40
2018-11-21T10:07:05.695Z,13.57
2018-11-21T10:09:39.462Z,12.87
2018-11-21T10:12:07.929Z,13.63
2018-11-21T10:14:36.061Z,13.70
2018-11-21T10:17:04.191Z,13.97
2018-11-21T10:19:32.375Z,13.83
2018-11-21T10:22:01.113Z,14.07
2018-11-21T10:24:29.373Z,13.30
2018-11-21T10:26:57.473Z,12.87
2018-11-21T10:29:26.041Z,12.70
2018-11-21T10:31:54.500Z,13.17
2018-11-21T10:34:22.593Z,14.43
2018-11-21T10:36:50.724Z,14.10
2018-11-21T10:39:18.925Z,12.23
2018-11-21T10:41:47.388Z,13.67
2018-11-21T10:44:16.114Z,13.90
2018-11-21T10:46:44.213Z,13.23
2018-11-21T10:49:12.711Z,13.23
2018-11-21T10:51:41.030Z,13.17
2018-11-21T10:54:09.256Z,12.40
2018-11-21T10:56:37.385Z,12.93
2018-11-21T10:59:05.676Z,13.63
2018-11-21T11:01:58.882Z,13.00
2018-11-21T11:04:49.626Z,14.57
2018-11-21T11:07:39.512Z,14.20
2018-11-21T11:10:22.407Z,13.67
2018-11-21T11:13:09.601Z,13.90
2018-11-21T11:16:05.755Z,13.57
2018-11-21T11:18:56.316Z,13.83
2018-11-21T11:21:49.979Z,13.77
2018-11-21T11:24:49.362Z,13.57
2018-11-21T11:27:39.562Z,13.57
2018-11-21T11:30:33.436Z,14.57
2018-11-21T11:33:20.844Z,14.53
2018-11-21T11:36:06.423Z,13.97
2018-11-21T11:38:54.330Z,12.70
2018-11-21T11:41:40.176Z,14.23
2018-11-21T11:44:26.257Z,14.10
2018-11-21T11:47:19.496Z,13.27
2018-11-21T11:50:00.850Z,14.23
2018-11-21T11:52:56.030Z,13.53
2018-11-21T11:55:41.724Z,13.73
2018-11-21T11:58:24.497Z,13.60
2018-11-21T12:01:03.441Z,14.33
2018-11-21T12:03:49.595Z,13.40
2018-11-21T12:06:42.628Z,13.20
2018-11-21T12:09:46.925Z,14.10
2018-11-21T12:12:47.756Z,14.30
2018-11-21T12:15:29.860Z,14.50
2018-11-21T12:18:35.295Z,14.63
2018-11-21T12:21:22.364Z,14.23
2018-11-21T12:24:03.473Z,14.63
2018-11-21T12:26:54.016Z,13.30
2018-11-21T12:29:56.583Z,14.10
2018-11-21T12:32:55.864Z,14.27
2018-11-21T12:35:46.317Z,14.07
2018-11-21T12:38:42.883Z,14.40
2018-11-21T12:41:28.601Z,13.83
2018-11-21T12:44:14.967Z,15.03
2018-11-21T12:47:02.246Z,15.53
2018-11-21T12:49:48.159Z,14.93
2018-11-21T12:52:38.336Z,14.23
2018-11-21T12:55:20.875Z,14.27
2018-11-21T12:58:11.347Z,13.87
2018-11-21T13:01:01.761Z,13.63
2018-11-21T13:03:39.836Z,14.50
2018-11-21T13:06:27.119Z,14.97
2018-11-21T13:09:32.611Z,13.57
2018-11-21T13:12:12.152Z,14.20
2018-11-21T13:14:53.940Z,14.43
2018-11-21T13:18:07.111Z,13.80
2018-11-21T13:20:57.343Z,13.43
2018-11-21T13:23:43.698Z,14.30
2018-11-21T13:26:29.693Z,13.60
2018-11-21T13:29:17.290Z,14.30
2018-11-21T13:32:11.919Z,16.00
2018-11-21T13:35:40.713Z,13.10
2018-11-21T13:38:26.824Z,13.70
2018-11-21T13:41:20.111Z,14.70
2018-11-21T13:43:56.871Z,15.07
2018-11-21T13:46:33.669Z,13.90
2018-11-21T13:49:20.988Z,13.73
2018-11-21T13:52:10.213Z,15.07
2018-11-21T13:54:55.510Z,14.37
2018-11-21T13:57:23.628Z,14.63
2018-11-21T14:00:03.587Z,14.10
2018-11-21T14:02:36.821Z,15.37
2018-11-21T14:05:03.736Z,13.73
2018-11-21T14:07:35.377Z,13.83
2018-11-21T14:10:06.919Z,13.97
2018-11-21T14:12:37.470Z,14.77
2018-11-21T14:15:09.330Z,14.10
2018-11-21T14:17:40.893Z,15.13
2018-11-21T14:20:10.811Z,15.30
2018-11-21T14:22:39.475Z,15.30
2018-11-21T14:25:09.375Z,14.77
2018-11-21T14:27:40.057Z,14.53
2018-11-21T14:30:16.138Z,14.77
2018-11-21T14:32:44.298Z,14.40
2018-11-21T14:35:13.905Z,14.60
2018-11-21T14:37:42.561Z,14.67
2018-11-21T14:40:13.088Z,14.17
2018-11-21T14:42:41.275Z,14.77
2018-11-21T14:45:11.838Z,14.03
2018-11-21T14:47:39.975Z,15.90
2018-11-21T14:50:28.653Z,15.50
2018-11-21T14:52:56.920Z,13.77
2018-11-21T14:55:25.374Z,14.57
2018-11-21T14:57:53.956Z,15.67
2018-11-21T15:00:22.748Z,13.70
2018-11-21T15:02:51.229Z,13.17
2018-11-21T15:05:19.852Z,14.53
2018-11-21T15:07:48.510Z,13.67
2018-11-21T15:10:16.623Z,14.10
2018-11-21T15:12:44.741Z,14.07
2018-11-21T15:15:18.486Z,14.30
2018-11-21T15:19:03.622Z,15.73
2018-11-21T15:21:17.493Z,14.00
2018-11-21T15:23:45.678Z,14.50
2018-11-21T15:26:14.028Z,14.37
2018-11-21T15:28:42.262Z,14.10
2018-11-21T15:31:10.373Z,15.60
2018-11-21T15:33:38.493Z,14.97
2018-11-21T15:36:06.876Z,14.67
2018-11-21T15:38:35.327Z,14.43
2018-11-21T15:41:03.458Z,14.40
2018-11-21T15:43:31.679Z,14.33
2018-11-21T15:45:59.834Z,14.80
2018-11-21T15:48:28.263Z,14.40
2018-11-21T15:50:57.084Z,15.07
2018-11-21T15:53:25.331Z,13.73
2018-11-21T15:55:53.476Z,14.80
2018-11-21T15:58:21.645Z,15.23
2018-11-21T16:00:52.811Z,15.20
2018-11-21T16:03:20.933Z,14.27
2018-11-21T16:05:49.133Z,15.40
2018-11-21T16:08:26.050Z,14.60
2018-11-21T16:10:54.043Z,15.20
2018-11-21T16:13:22.191Z,14.83
2018-11-21T16:15:52.291Z,15.67
2018-11-21T16:18:22.111Z,16.27
2018-11-21T16:20:50.425Z,15.53
2018-11-21T16:23:18.533Z,16.67
2018-11-21T16:25:46.832Z,15.60
2018-11-21T16:28:14.970Z,16.30
2018-11-21T16:31:01.060Z,16.67
2018-11-21T16:33:29.752Z,16.57
2018-11-21T16:35:57.997Z,15.90
2018-11-21T16:38:26.141Z,15.60
2018-11-21T16:40:54.438Z,16.17
2018-11-21T16:43:23.194Z,15.70
2018-11-21T16:45:53.340Z,16.00
2018-11-21T16:48:21.799Z,16.93
2018-11-21T16:50:49.971Z,16.53
2018-11-21T16:53:18.174Z,17.07
2018-11-21T16:55:46.366Z,17.10
2018-11-21T16:58:14.524Z,16.17
2018-11-21T17:00:42.963Z,17.63
2018-11-21T17:03:13.098Z,17.13
2018-11-21T17:05:41.434Z,18.20
2018-11-21T17:08:37.702Z,17.00
2018-11-21T17:10:52.234Z,18.93
2018-11-21T17:13:23.902Z,19.27
2018-11-21T17:15:52.420Z,17.37
2018-11-21T17:18:20.909Z,17.00
2018-11-21T17:20:50.057Z,18.57
2018-11-21T17:23:18.604Z,19.20
2018-11-21T17:25:46.755Z,17.97
2018-11-21T17:28:14.997Z,22.43
2018-11-21T17:30:44.033Z,19.87
2018-11-21T17:33:12.264Z,20.70
2018-11-21T17:35:40.597Z,19.70
2018-11-21T17:38:08.932Z,18.93
2018-11-21T17:40:42.885Z,20.73
2018-11-21T17:43:11.060Z,19.23
2018-11-21T17:45:39.169Z,20.93
2018-11-21T17:48:07.834Z,19.73
2018-11-21T17:50:36.281Z,18.00
2018-11-21T17:53:05.640Z,18.37
2018-11-21T17:55:34.826Z,20.27
2018-11-21T17:58:03.508Z,19.67
2018-11-21T18:00:32.227Z,19.07
2018-11-21T18:03:00.344Z,18.67
2018-11-21T18:05:33.336Z,18.83
2018-11-21T18:11:44.940Z,17.93
2018-11-21T18:14:13.377Z,20.60
2018-11-21T18:16:41.793Z,17.53
2018-11-21T18:19:09.988Z,18.90
2018-11-21T18:21:38.239Z,19.90
2018-11-21T18:24:06.407Z,19.17
2018-11-21T18:26:34.695Z,19.13
2018-11-21T18:29:03.071Z,18.00
2018-11-21T18:31:31.245Z,18.97
2018-11-21T18:33:59.364Z,19.00
2018-11-21T18:36:27.496Z,19.30
2018-11-21T18:38:56.021Z,19.17
2018-11-21T18:41:24.545Z,17.93
2018-11-21T18:43:56.326Z,18.90
2018-11-21T18:46:33.642Z,18.93
2018-11-21T18:49:03.075Z,19.13
2018-11-21T18:52:01.568Z,22.63
2018-11-21T18:55:27.729Z,18.93
2018-11-21T18:59:05.096Z,18.27
2018-11-21T19:01:34.288Z,20.03
2018-11-21T19:04:51.886Z,16.93
2018-11-21T19:07:26.236Z,18.93
2018-11-21T19:09:54.462Z,18.23
2018-11-21T19:12:22.616Z,20.43
2018-11-21T19:14:50.774Z,18.47
2018-11-21T19:17:18.907Z,18.60
2018-11-21T19:19:47.293Z,17.93
2018-11-21T19:22:15.734Z,17.60
2018-11-21T19:24:43.926Z,17.73
2018-11-21T19:27:12.503Z,17.63
2018-11-21T19:29:40.764Z,18.07
2018-11-21T19:32:10.113Z,16.93
2018-11-21T19:34:47.735Z,16.53
2018-11-21T19:37:16.347Z,16.80
2018-11-21T19:39:44.745Z,18.13
2018-11-21T19:42:12.893Z,17.93
2018-11-21T19:44:40.994Z,16.50
2018-11-21T19:47:09.150Z,18.07
2018-11-21T19:49:47.430Z,18.37
2018-11-21T19:52:15.699Z,18.43
2018-11-21T19:54:43.839Z,16.10
2018-11-21T19:57:12.237Z,18.40
2018-11-21T19:59:43.563Z,18.27
2018-11-21T20:02:08.537Z,17.63
2018-11-21T20:04:40.883Z,17.27
2018-11-21T20:07:24.249Z,17.47
2018-11-21T20:09:56.294Z,17.17
2018-11-21T20:12:24.463Z,16.53
2018-11-21T20:14:52.999Z,17.20
2018-11-21T20:17:21.605Z,16.83
2018-11-21T20:19:50.371Z,16.33
2018-11-21T20:22:18.497Z,15.63
2018-11-21T20:24:46.764Z,17.10
2018-11-21T20:27:15.508Z,16.23
2018-11-21T20:29:46.701Z,15.60
2018-11-21T20:32:13.437Z,15.53
2018-11-21T20:34:41.549Z,18.90
2018-11-21T20:37:09.750Z,16.53
2018-11-21T20:39:38.113Z,18.10
2018-11-21T20:42:06.470Z,16.43
2018-11-21T20:44:34.960Z,16.77
2018-11-21T20:47:03.637Z,15.90
2018-11-21T20:49:32.621Z,16.23
2018-11-21T20:52:01.022Z,15.80
2018-11-21T20:54:29.452Z,15.77
2018-11-21T20:56:57.827Z,16.90
2018-11-21T20:59:26.202Z,15.57
2018-11-21T21:01:54.647Z,14.70
2018-11-21T21:04:23.081Z,15.63
2018-11-21T21:06:53.942Z,17.17
2018-11-21T21:09:22.432Z,16.23
2018-11-21T21:11:51.154Z,16.03
2018-11-21T21:14:19.553Z,15.67
2018-11-21T21:16:48.047Z,16.20
2018-11-21T21:19:16.884Z,16.13
2018-11-21T21:21:44.798Z,16.20
2018-11-21T21:24:13.373Z,16.23
2018-11-21T21:26:41.502Z,16.90
2018-11-21T21:29:11.061Z,15.50
2018-11-21T21:31:39.476Z,16.20
2018-11-21T21:37:37.516Z,15.83
2018-11-21T21:40:11.245Z,16.27
2018-11-21T21:42:42.083Z,14.53
2018-11-21T21:45:10.121Z,15.50
2018-11-21T21:47:41.690Z,15.00
2018-11-21T21:50:08.289Z,15.33
2018-11-21T21:52:36.607Z,15.10
2018-11-21T21:55:05.370Z,15.17
2018-11-21T21:57:33.898Z,15.83
2018-11-21T22:00:03.125Z,14.73
2018-11-21T22:02:37.547Z,15.70
2018-11-21T22:05:09.817Z,14.40
2018-11-21T22:07:50.998Z,14.40
2018-11-21T22:10:26.625Z,15.90
2018-11-21T22:15:59.587Z,15.23
2018-11-21T22:18:30.743Z,14.47
2018-11-21T22:21:11.620Z,15.43
2018-11-21T22:23:53.953Z,15.37
2018-11-21T22:26:25.845Z,14.67
2018-11-21T22:29:00.108Z,14.57
2018-11-21T22:31:28.220Z,14.37
2018-11-21T22:33:56.805Z,16.00
2018-11-21T22:36:24.951Z,14.97
2018-11-21T22:38:53.203Z,15.33
2018-11-21T22:41:21.387Z,14.63
2018-11-21T22:43:49.659Z,14.87
2018-11-21T22:46:17.870Z,14.57
2018-11-21T22:48:46.019Z,16.17
2018-11-21T22:51:14.245Z,14.60
2018-11-21T22:53:42.465Z,15.13
2018-11-21T22:56:10.645Z,15.13
2018-11-21T22:58:38.762Z,14.93
